TimeIST,TemperatureF,Dew PointF,Humidity,Sea Level PressureIn,VisibilityMPH,Wind Direction,Wind SpeedMPH,Gust SpeedMPH,PrecipitationIn,Events,Conditions,WindDirDegrees,DateUTC
12:00 AM,53.6,48.2,82,29.89,0.9,SSE,8.1,-,N/A,,Scattered Clouds,160,2012-12-28 18:30:00
1:00 AM,53.6,48.2,82,29.89,0.9,South,8.1,-,N/A,,Scattered Clouds,180,2012-12-28 19:30:00
1:30 AM,53.6,48.2,82,29.89,0.9,SSE,8.1,-,N/A,,Scattered Clouds,160,2012-12-28 20:00:00
2:00 AM,51.8,48.2,88,29.92,0.9,Calm,Calm,-,N/A,,Scattered Clouds,0,2012-12-28 20:30:00
2:30 AM,51.8,50.0,94,29.92,0.7,Calm,Calm,-,N/A,,Scattered Clouds,0,2012-12-28 21:00:00
3:00 AM,51.8,50.0,94,29.92,0.7,Calm,Calm,-,N/A,,Scattered Clouds,0,2012-12-28 21:30:00
3:30 AM,51.8,50.0,94,29.92,0.7,Calm,Calm,-,N/A,,Scattered Clouds,0,2012-12-28 22:00:00
4:00 AM,51.8,50.0,94,29.92,0.7,East,2.3,-,N/A,,Scattered Clouds,90,2012-12-28 22:30:00
4:30 AM,50.0,48.2,94,29.89,0.6,East,5.8,-,N/A,,Scattered Clouds,100,2012-12-28 23:00:00
5:00 AM,50.0,48.2,94,29.89,0.6,ESE,5.8,-,N/A,Fog,Shallow Fog,110,2012-12-28 23:30:00
5:30 AM,50.0,48.2,94,29.92,0.4,East,5.8,-,N/A,Fog,Shallow Fog,100,2012-12-29 00:00:00
6:00 AM,50.0,48.2,94,29.92,0.4,East,5.8,-,N/A,Fog,Shallow Fog,90,2012-12-29 00:30:00
6:30 AM,48.2,48.2,100,29.92,0.4,East,5.8,-,N/A,Fog,Shallow Fog,100,2012-12-29 01:00:00
7:00 AM,48.2,48.2,100,29.95,0.4,ESE,4.6,-,N/A,Fog,Shallow Fog,120,2012-12-29 01:30:00
7:30 AM,48.2,48.2,100,29.95,0.4,ESE,4.6,-,N/A,Fog,Shallow Fog,120,2012-12-29 02:00:00
8:00 AM,50.0,50.0,100,29.95,0.4,ESE,3.5,-,N/A,Fog,Shallow Fog,120,2012-12-29 02:30:00
8:30 AM,50.0,50.0,100,29.95,0.4,ESE,4.6,-,N/A,Fog,Shallow Fog,120,2012-12-29 03:00:00
9:00 AM,53.6,53.6,100,29.98,0.4,ESE,4.6,-,N/A,Fog,Shallow Fog,110,2012-12-29 03:30:00
10:00 AM,57.2,51.8,82,29.98,0.7,SE,4.6,-,N/A,,Smoke,140,2012-12-29 04:30:00
10:30 AM,59.0,46.4,63,30.01,0.7,SE,5.8,-,N/A,,Smoke,140,2012-12-29 05:00:00
11:00 AM,60.8,46.4,59,30.01,0.9,South,4.6,-,N/A,,Smoke,180,2012-12-29 05:30:00
12:00 PM,64.4,42.8,45,29.98,1.1,South,5.8,-,N/A,,Smoke,180,2012-12-29 06:30:00
12:30 PM,66.2,41.0,40,29.98,1.1,South,5.8,-,N/A,,Smoke,170,2012-12-29 07:00:00
1:00 PM,66.2,42.8,43,29.95,1.0,South,3.5,-,N/A,,Smoke,170,2012-12-29 07:30:00
2:00 PM,68.0,39.2,35,29.92,1.6,South,4.6,-,N/A,,Haze,180,2012-12-29 08:30:00
3:00 PM,69.8,39.2,33,29.92,2.2,Calm,Calm,-,N/A,,Haze,0,2012-12-29 09:30:00
3:30 PM,69.8,39.2,33,29.92,2.2,Calm,Calm,-,N/A,,Haze,0,2012-12-29 10:00:00
4:00 PM,68.0,41.0,37,29.89,-9999.0,SSW,4.6,-,N/A,,Haze,200,2012-12-29 10:30:00
5:00 PM,64.4,50.0,59,29.89,1.1,WNW,4.6,-,N/A,,Smoke,300,2012-12-29 11:30:00
6:00 PM,60.8,51.8,72,29.92,0.7,NW,5.8,-,N/A,,Smoke,310,2012-12-29 12:30:00
6:30 PM,60.8,51.8,72,29.92,0.6,NW,3.5,-,N/A,,Smoke,310,2012-12-29 13:00:00
7:00 PM,59.0,53.6,82,29.92,0.6,Calm,Calm,-,N/A,,Smoke,0,2012-12-29 13:30:00
8:00 PM,55.4,55.4,100,29.95,0.4,Calm,Calm,-,N/A,Fog,Shallow Fog,0,2012-12-29 14:30:00
8:30 PM,53.6,53.6,100,29.95,0.4,Calm,Calm,-,N/A,Fog,Fog,0,2012-12-29 15:00:00
9:00 PM,53.6,53.6,100,29.95,0.3,Calm,Calm,-,N/A,Fog,Fog,0,2012-12-29 15:30:00
9:30 PM,53.6,53.6,100,29.95,0.2,Calm,Calm,-,N/A,Fog,Fog,0,2012-12-29 16:00:00
10:00 PM,53.6,53.6,100,29.98,0.2,West,4.6,-,N/A,Fog,Fog,280,2012-12-29 16:30:00
10:30 PM,53.6,53.6,100,29.98,0.2,West,4.6,-,N/A,Fog,Fog,270,2012-12-29 17:00:00
11:00 PM,53.6,53.6,100,29.98,0.3,NW,6.9,-,N/A,Fog,Fog,320,2012-12-29 17:30:00
11:30 PM,51.8,51.8,100,29.98,0.4,WNW,5.8,-,N/A,Fog,Shallow Fog,300,2012-12-29 18:00:00